Harvest Peace — V7VE7 — position and weather

sailwx.info

Track history (hours):
 
Tides and Currents Weather Stations Pressure Air Temp Water Temp Dewpoint Dewpoint Depression Visibility Wind Speed Wind Dir Waves Ship Positions

Harvest Peace

Last reported at 2014-Sep-23 03:33 UTC. Time now 2014-Oct-02 02:35 UTC.
Position N 38°37' E 025°45'.
Warning: this ship's position is 8 days out of date.

Length 225 m; draft 9.4 m.

Type: Cargo ship. MMSI: 538004103.

Date/timePositionNaut miles runAvg speedWind from/ knotsBaromVisibWave heightAir tempDewpointWater temp
2014-Sep-23 03:33N 38°37' E 025°45'1212.3
2014-Sep-23 02:33N 38°25' E 025°41'1312.7
2014-Sep-23 01:33N 38°12' E 025°42'1313.0
2014-Sep-23 00:33N 37°59' E 025°43'1312.8
2014-Sep-22 23:33N 37°46' E 025°44'1313.0
2014-Sep-22 22:33N 37°33' E 025°45'1212.2
2014-Sep-22 21:33N 37°26' E 025°56'1312.9
2014-Sep-22 20:33N 37°18' E 026°10'1312.7
2014-Sep-22 19:33N 37°12' E 026°23'1612.6
2014-Sep-22 18:16N 37°02' E 026°40'912.8
2014-Sep-22 17:33N 36°53' E 026°43'1212.3
2014-Sep-22 16:33N 36°41' E 026°46'1312.1
2014-Sep-22 15:31N 36°29' E 026°50'1111.5
2014-Sep-22 14:33N 36°20' E 026°58'1812.3
2014-Sep-22 13:07N 36°10' E 027°16'812.1
2014-Sep-22 12:28N 36°05' E 027°23'1011.4
2014-Sep-22 11:33N 35°57' E 027°33'1111.0
2014-Sep-22 10:33N 35°48' E 027°40'1611.6
2014-Sep-22 09:11N 35°46' E 027°59'22212.5
2014-Sep-21 15:28N 35°48' E 032°32'1512.2
2014-Sep-21 14:15N 35°48' E 032°51'  
Track history (hours):
 
Tides and Currents Weather Stations Pressure Air Temp Water Temp Dewpoint Dewpoint Depression Visibility Wind Speed Wind Dir Waves Ship Positions

Harvest Peace

Last reported at 2014-Sep-23 03:33 UTC. Time now 2014-Oct-02 02:35 UTC.
Position N 38°37' E 025°45'.
Warning: this ship's position is 8 days out of date.

Length 225 m; draft 9.4 m.

Type: Cargo ship. MMSI: 538004103.

Date/timePositionNaut miles runAvg speedWind from/ knotsBaromVisibWave heightAir tempDewpointWater temp
2014-Sep-23 03:33N 38°37' E 025°45'1212.3
2014-Sep-23 02:33N 38°25' E 025°41'1312.7
2014-Sep-23 01:33N 38°12' E 025°42'1313.0
2014-Sep-23 00:33N 37°59' E 025°43'1312.8
2014-Sep-22 23:33N 37°46' E 025°44'1313.0
2014-Sep-22 22:33N 37°33' E 025°45'1212.2
2014-Sep-22 21:33N 37°26' E 025°56'1312.9
2014-Sep-22 20:33N 37°18' E 026°10'1312.7
2014-Sep-22 19:33N 37°12' E 026°23'1612.6
2014-Sep-22 18:16N 37°02' E 026°40'912.8
2014-Sep-22 17:33N 36°53' E 026°43'1212.3
2014-Sep-22 16:33N 36°41' E 026°46'1312.1
2014-Sep-22 15:31N 36°29' E 026°50'1111.5
2014-Sep-22 14:33N 36°20' E 026°58'1812.3
2014-Sep-22 13:07N 36°10' E 027°16'812.1
2014-Sep-22 12:28N 36°05' E 027°23'1011.4
2014-Sep-22 11:33N 35°57' E 027°33'1111.0
2014-Sep-22 10:33N 35°48' E 027°40'1611.6
2014-Sep-22 09:11N 35°46' E 027°59'22212.5
2014-Sep-21 15:28N 35°48' E 032°32'1512.2
2014-Sep-21 14:15N 35°48' E 032°51'  

Dump ship's entire track history